sensor_id;sensor_type;location;lat;lon;timestamp;P1;durP1;ratioP1;P2;durP2;ratioP2
45114;SDS011;30877;43.706;10.780;2022-10-31T00:01:24;3.15;;;2.47;;
45114;SDS011;30877;43.706;10.780;2022-10-31T00:03:53;8.40;;;3.03;;
45114;SDS011;30877;43.706;10.780;2022-10-31T00:06:21;5.03;;;2.90;;
45114;SDS011;30877;43.706;10.780;2022-10-31T00:08:51;5.43;;;2.80;;
45114;SDS011;30877;43.706;10.780;2022-10-31T00:11:20;6.60;;;2.88;;
45114;SDS011;30877;43.706;10.780;2022-10-31T00:13:50;5.68;;;2.83;;
45114;SDS011;30877;43.706;10.780;2022-10-31T00:16:19;6.75;;;2.70;;
45114;SDS011;30877;43.706;10.780;2022-10-31T00:18:48;6.53;;;2.78;;
45114;SDS011;30877;43.706;10.780;2022-10-31T00:21:16;6.78;;;2.85;;
45114;SDS011;30877;43.706;10.780;2022-10-31T00:23:44;8.07;;;2.67;;
45114;SDS011;30877;43.706;10.780;2022-10-31T00:26:12;4.97;;;2.47;;
45114;SDS011;30877;43.706;10.780;2022-10-31T00:28:41;5.70;;;2.95;;
45114;SDS011;30877;43.706;10.780;2022-10-31T00:31:11;5.72;;;3.30;;
45114;SDS011;30877;43.706;10.780;2022-10-31T00:33:40;6.32;;;3.42;;
45114;SDS011;30877;43.706;10.780;2022-10-31T00:36:10;6.97;;;3.10;;
45114;SDS011;30877;43.706;10.780;2022-10-31T00:38:39;6.43;;;3.80;;
45114;SDS011;30877;43.706;10.780;2022-10-31T00:41:07;8.80;;;4.13;;
45114;SDS011;30877;43.706;10.780;2022-10-31T00:43:35;6.70;;;3.92;;
45114;SDS011;30877;43.706;10.780;2022-10-31T00:46:03;6.82;;;3.47;;
45114;SDS011;30877;43.706;10.780;2022-10-31T00:48:32;7.40;;;3.80;;
45114;SDS011;30877;43.706;10.780;2022-10-31T00:50:59;7.28;;;4.03;;
45114;SDS011;30877;43.706;10.780;2022-10-31T00:53:27;7.00;;;3.90;;
45114;SDS011;30877;43.706;10.780;2022-10-31T00:55:55;5.53;;;3.50;;
45114;SDS011;30877;43.706;10.780;2022-10-31T00:58:23;6.43;;;3.60;;
45114;SDS011;30877;43.706;10.780;2022-10-31T01:00:51;6.43;;;4.25;;
45114;SDS011;30877;43.706;10.780;2022-10-31T01:03:22;6.32;;;3.80;;
45114;SDS011;30877;43.706;10.780;2022-10-31T01:05:59;8.32;;;3.67;;
45114;SDS011;30877;43.706;10.780;2022-10-31T01:08:31;10.43;;;4.15;;
45114;SDS011;30877;43.706;10.780;2022-10-31T01:11:04;5.53;;;3.58;;
45114;SDS011;30877;43.706;10.780;2022-10-31T01:13:34;7.50;;;3.88;;
45114;SDS011;30877;43.706;10.780;2022-10-31T01:16:03;6.25;;;4.07;;
45114;SDS011;30877;43.706;10.780;2022-10-31T01:18:32;7.88;;;3.45;;
45114;SDS011;30877;43.706;10.780;2022-10-31T01:21:03;6.68;;;3.70;;
45114;SDS011;30877;43.706;10.780;2022-10-31T01:23:32;7.63;;;3.65;;
45114;SDS011;30877;43.706;10.780;2022-10-31T01:26:07;6.60;;;3.65;;
45114;SDS011;30877;43.706;10.780;2022-10-31T01:28:43;4.18;;;2.80;;
45114;SDS011;30877;43.706;10.780;2022-10-31T01:31:13;3.88;;;2.60;;
45114;SDS011;30877;43.706;10.780;2022-10-31T01:33:43;4.55;;;3.03;;
45114;SDS011;30877;43.706;10.780;2022-10-31T01:36:14;6.32;;;3.03;;
45114;SDS011;30877;43.706;10.780;2022-10-31T01:38:43;5.38;;;2.58;;
45114;SDS011;30877;43.706;10.780;2022-10-31T01:41:13;7.10;;;2.35;;
45114;SDS011;30877;43.706;10.780;2022-10-31T01:43:45;5.25;;;2.30;;
45114;SDS011;30877;43.706;10.780;2022-10-31T01:46:16;3.47;;;2.40;;
45114;SDS011;30877;43.706;10.780;2022-10-31T01:48:47;5.35;;;2.42;;
45114;SDS011;30877;43.706;10.780;2022-10-31T01:51:18;6.97;;;3.30;;
45114;SDS011;30877;43.706;10.780;2022-10-31T01:53:50;5.43;;;3.00;;
45114;SDS011;30877;43.706;10.780;2022-10-31T01:56:22;4.88;;;3.17;;
45114;SDS011;30877;43.706;10.780;2022-10-31T01:58:50;4.93;;;2.53;;
45114;SDS011;30877;43.706;10.780;2022-10-31T02:01:20;4.25;;;2.42;;
45114;SDS011;30877;43.706;10.780;2022-10-31T02:03:48;5.65;;;2.90;;
45114;SDS011;30877;43.706;10.780;2022-10-31T02:06:21;7.22;;;3.53;;
45114;SDS011;30877;43.706;10.780;2022-10-31T02:08:54;5.28;;;3.30;;
45114;SDS011;30877;43.706;10.780;2022-10-31T02:11:23;8.60;;;3.33;;
45114;SDS011;30877;43.706;10.780;2022-10-31T02:13:52;6.65;;;3.05;;
45114;SDS011;30877;43.706;10.780;2022-10-31T02:16:21;6.57;;;3.00;;
45114;SDS011;30877;43.706;10.780;2022-10-31T02:18:49;5.40;;;2.78;;
45114;SDS011;30877;43.706;10.780;2022-10-31T02:21:21;4.55;;;3.00;;
45114;SDS011;30877;43.706;10.780;2022-10-31T02:26:51;7.95;;;3.30;;
45114;SDS011;30877;43.706;10.780;2022-10-31T02:32:29;5.80;;;3.10;;
45114;SDS011;30877;43.706;10.780;2022-10-31T02:35:09;7.95;;;3.75;;
45114;SDS011;30877;43.706;10.780;2022-10-31T02:37:42;7.68;;;3.40;;
45114;SDS011;30877;43.706;10.780;2022-10-31T02:40:17;7.30;;;3.03;;
45114;SDS011;30877;43.706;10.780;2022-10-31T02:43:09;5.90;;;2.90;;
45114;SDS011;30877;43.706;10.780;2022-10-31T02:45:45;8.80;;;3.40;;
45114;SDS011;30877;43.706;10.780;2022-10-31T02:48:19;6.45;;;3.53;;
45114;SDS011;30877;43.706;10.780;2022-10-31T02:50:50;5.88;;;3.13;;
45114;SDS011;30877;43.706;10.780;2022-10-31T02:53:22;7.80;;;2.80;;
45114;SDS011;30877;43.706;10.780;2022-10-31T02:55:58;6.22;;;3.08;;
45114;SDS011;30877;43.706;10.780;2022-10-31T02:58:29;7.03;;;2.80;;
45114;SDS011;30877;43.706;10.780;2022-10-31T03:01:14;6.70;;;3.05;;
45114;SDS011;30877;43.706;10.780;2022-10-31T03:03:59;7.22;;;3.10;;
45114;SDS011;30877;43.706;10.780;2022-10-31T03:06:41;4.95;;;2.67;;
45114;SDS011;30877;43.706;10.780;2022-10-31T03:09:18;5.67;;;3.00;;
45114;SDS011;30877;43.706;10.780;2022-10-31T03:11:56;5.85;;;2.90;;
45114;SDS011;30877;43.706;10.780;2022-10-31T03:14:33;4.68;;;2.80;;
45114;SDS011;30877;43.706;10.780;2022-10-31T03:17:09;8.27;;;3.58;;
45114;SDS011;30877;43.706;10.780;2022-10-31T03:19:44;5.47;;;2.83;;
45114;SDS011;30877;43.706;10.780;2022-10-31T03:22:15;6.20;;;3.42;;
45114;SDS011;30877;43.706;10.780;2022-10-31T03:24:47;5.40;;;2.78;;
45114;SDS011;30877;43.706;10.780;2022-10-31T03:27:17;5.43;;;2.97;;
45114;SDS011;30877;43.706;10.780;2022-10-31T03:29:48;5.82;;;2.63;;
45114;SDS011;30877;43.706;10.780;2022-10-31T03:32:19;4.95;;;2.90;;
45114;SDS011;30877;43.706;10.780;2022-10-31T03:34:53;6.22;;;2.53;;
45114;SDS011;30877;43.706;10.780;2022-10-31T03:37:24;4.32;;;2.88;;
45114;SDS011;30877;43.706;10.780;2022-10-31T03:39:57;5.75;;;3.05;;
45114;SDS011;30877;43.706;10.780;2022-10-31T03:42:28;5.90;;;3.03;;
45114;SDS011;30877;43.706;10.780;2022-10-31T03:44:59;4.47;;;2.80;;
45114;SDS011;30877;43.706;10.780;2022-10-31T03:47:30;4.07;;;2.78;;
45114;SDS011;30877;43.706;10.780;2022-10-31T03:50:00;6.80;;;3.28;;
45114;SDS011;30877;43.706;10.780;2022-10-31T03:52:29;3.83;;;2.80;;
45114;SDS011;30877;43.706;10.780;2022-10-31T03:55:04;4.82;;;2.92;;
45114;SDS011;30877;43.706;10.780;2022-10-31T03:57:37;4.35;;;2.80;;
45114;SDS011;30877;43.706;10.780;2022-10-31T04:00:12;5.90;;;2.63;;
45114;SDS011;30877;43.706;10.780;2022-10-31T04:02:45;5.68;;;2.92;;
45114;SDS011;30877;43.706;10.780;2022-10-31T04:05:20;6.90;;;2.85;;
45114;SDS011;30877;43.706;10.780;2022-10-31T04:07:50;5.72;;;3.22;;
45114;SDS011;30877;43.706;10.780;2022-10-31T04:10:22;8.57;;;3.60;;
45114;SDS011;30877;43.706;10.780;2022-10-31T04:13:01;8.82;;;3.63;;
45114;SDS011;30877;43.706;10.780;2022-10-31T04:15:39;9.07;;;3.40;;
45114;SDS011;30877;43.706;10.780;2022-10-31T04:18:09;9.68;;;4.15;;
45114;SDS011;30877;43.706;10.780;2022-10-31T04:20:40;10.15;;;4.72;;
45114;SDS011;30877;43.706;10.780;2022-10-31T04:23:13;9.20;;;4.32;;
45114;SDS011;30877;43.706;10.780;2022-10-31T04:25:45;6.40;;;3.70;;
45114;SDS011;30877;43.706;10.780;2022-10-31T04:28:13;5.60;;;3.03;;
45114;SDS011;30877;43.706;10.780;2022-10-31T04:30:42;5.10;;;3.00;;
45114;SDS011;30877;43.706;10.780;2022-10-31T04:33:10;6.95;;;3.08;;
45114;SDS011;30877;43.706;10.780;2022-10-31T04:35:39;5.10;;;2.88;;
45114;SDS011;30877;43.706;10.780;2022-10-31T04:38:08;4.10;;;3.03;;
45114;SDS011;30877;43.706;10.780;2022-10-31T04:40:37;5.05;;;3.00;;
45114;SDS011;30877;43.706;10.780;2022-10-31T04:43:40;7.72;;;3.00;;
45114;SDS011;30877;43.706;10.780;2022-10-31T04:46:08;5.53;;;2.80;;
45114;SDS011;30877;43.706;10.780;2022-10-31T04:48:36;6.28;;;3.13;;
45114;SDS011;30877;43.706;10.780;2022-10-31T04:51:07;4.65;;;2.75;;
45114;SDS011;30877;43.706;10.780;2022-10-31T04:53:35;5.28;;;2.90;;
45114;SDS011;30877;43.706;10.780;2022-10-31T04:56:22;6.40;;;3.05;;
45114;SDS011;30877;43.706;10.780;2022-10-31T04:58:55;5.20;;;2.75;;
45114;SDS011;30877;43.706;10.780;2022-10-31T05:01:25;4.97;;;2.97;;
45114;SDS011;30877;43.706;10.780;2022-10-31T05:03:54;4.88;;;2.47;;
45114;SDS011;30877;43.706;10.780;2022-10-31T05:06:24;6.43;;;3.03;;
45114;SDS011;30877;43.706;10.780;2022-10-31T05:08:51;5.13;;;2.60;;
45114;SDS011;30877;43.706;10.780;2022-10-31T05:11:19;4.85;;;2.20;;
45114;SDS011;30877;43.706;10.780;2022-10-31T05:13:47;5.88;;;2.67;;
45114;SDS011;30877;43.706;10.780;2022-10-31T05:16:34;5.07;;;2.47;;
45114;SDS011;30877;43.706;10.780;2022-10-31T05:19:28;5.35;;;3.58;;
45114;SDS011;30877;43.706;10.780;2022-10-31T05:22:17;6.85;;;2.83;;
45114;SDS011;30877;43.706;10.780;2022-10-31T05:24:45;4.63;;;2.83;;
45114;SDS011;30877;43.706;10.780;2022-10-31T05:27:13;6.53;;;3.08;;
45114;SDS011;30877;43.706;10.780;2022-10-31T05:29:41;4.78;;;2.60;;
45114;SDS011;30877;43.706;10.780;2022-10-31T05:32:09;5.43;;;2.63;;
45114;SDS011;30877;43.706;10.780;2022-10-31T05:34:55;5.45;;;2.78;;
45114;SDS011;30877;43.706;10.780;2022-10-31T05:37:51;5.30;;;2.50;;
45114;SDS011;30877;43.706;10.780;2022-10-31T05:40:20;4.80;;;3.25;;
45114;SDS011;30877;43.706;10.780;2022-10-31T05:42:50;4.18;;;2.70;;
45114;SDS011;30877;43.706;10.780;2022-10-31T05:45:20;4.80;;;2.63;;
45114;SDS011;30877;43.706;10.780;2022-10-31T05:47:58;5.22;;;2.58;;
45114;SDS011;30877;43.706;10.780;2022-10-31T05:50:53;4.53;;;2.78;;
45114;SDS011;30877;43.706;10.780;2022-10-31T05:53:23;4.45;;;2.58;;
45114;SDS011;30877;43.706;10.780;2022-10-31T05:55:51;7.72;;;2.65;;
45114;SDS011;30877;43.706;10.780;2022-10-31T05:58:21;5.28;;;3.17;;
45114;SDS011;30877;43.706;10.780;2022-10-31T06:01:02;10.43;;;3.13;;
45114;SDS011;30877;43.706;10.780;2022-10-31T06:03:30;6.43;;;2.40;;
45114;SDS011;30877;43.706;10.780;2022-10-31T06:06:00;5.65;;;2.92;;
45114;SDS011;30877;43.706;10.780;2022-10-31T06:08:41;6.40;;;2.83;;
45114;SDS011;30877;43.706;10.780;2022-10-31T06:11:14;5.95;;;3.00;;
45114;SDS011;30877;43.706;10.780;2022-10-31T06:14:00;9.13;;;3.50;;
45114;SDS011;30877;43.706;10.780;2022-10-31T06:16:55;4.22;;;2.28;;
45114;SDS011;30877;43.706;10.780;2022-10-31T06:19:55;6.07;;;2.80;;
45114;SDS011;30877;43.706;10.780;2022-10-31T06:22:25;4.22;;;2.17;;
45114;SDS011;30877;43.706;10.780;2022-10-31T06:24:56;6.50;;;2.97;;
45114;SDS011;30877;43.706;10.780;2022-10-31T06:27:30;3.77;;;2.27;;
45114;SDS011;30877;43.706;10.780;2022-10-31T06:30:04;5.25;;;2.83;;
45114;SDS011;30877;43.706;10.780;2022-10-31T06:32:35;4.47;;;2.42;;
45114;SDS011;30877;43.706;10.780;2022-10-31T06:35:06;6.25;;;2.80;;
45114;SDS011;30877;43.706;10.780;2022-10-31T06:37:35;6.72;;;2.90;;
45114;SDS011;30877;43.706;10.780;2022-10-31T06:40:25;5.07;;;2.88;;
45114;SDS011;30877;43.706;10.780;2022-10-31T06:43:28;4.88;;;2.55;;
45114;SDS011;30877;43.706;10.780;2022-10-31T06:46:19;5.13;;;3.30;;
45114;SDS011;30877;43.706;10.780;2022-10-31T06:49:05;5.60;;;2.97;;
45114;SDS011;30877;43.706;10.780;2022-10-31T06:51:40;5.35;;;2.92;;
45114;SDS011;30877;43.706;10.780;2022-10-31T06:54:08;7.13;;;2.72;;
45114;SDS011;30877;43.706;10.780;2022-10-31T06:56:38;5.57;;;2.80;;
45114;SDS011;30877;43.706;10.780;2022-10-31T06:59:07;5.60;;;2.92;;
45114;SDS011;30877;43.706;10.780;2022-10-31T07:01:55;7.00;;;3.17;;
45114;SDS011;30877;43.706;10.780;2022-10-31T07:04:25;7.32;;;3.03;;
45114;SDS011;30877;43.706;10.780;2022-10-31T07:06:53;6.82;;;3.17;;
45114;SDS011;30877;43.706;10.780;2022-10-31T07:09:21;5.13;;;2.80;;
45114;SDS011;30877;43.706;10.780;2022-10-31T07:11:51;7.82;;;3.28;;
45114;SDS011;30877;43.706;10.780;2022-10-31T07:14:19;4.28;;;2.70;;
45114;SDS011;30877;43.706;10.780;2022-10-31T07:16:48;9.88;;;4.18;;
45114;SDS011;30877;43.706;10.780;2022-10-31T07:19:22;5.72;;;3.33;;
45114;SDS011;30877;43.706;10.780;2022-10-31T07:21:50;5.32;;;3.30;;
45114;SDS011;30877;43.706;10.780;2022-10-31T07:24:18;7.72;;;3.35;;
45114;SDS011;30877;43.706;10.780;2022-10-31T07:27:07;8.80;;;3.00;;
45114;SDS011;30877;43.706;10.780;2022-10-31T07:29:36;9.10;;;3.30;;
45114;SDS011;30877;43.706;10.780;2022-10-31T07:32:04;7.82;;;3.30;;
45114;SDS011;30877;43.706;10.780;2022-10-31T07:34:34;9.18;;;3.35;;
45114;SDS011;30877;43.706;10.780;2022-10-31T07:37:31;4.68;;;3.28;;
45114;SDS011;30877;43.706;10.780;2022-10-31T07:39:59;8.52;;;3.65;;
45114;SDS011;30877;43.706;10.780;2022-10-31T07:42:35;5.90;;;3.13;;
45114;SDS011;30877;43.706;10.780;2022-10-31T07:45:04;6.70;;;3.45;;
45114;SDS011;30877;43.706;10.780;2022-10-31T07:48:03;8.25;;;3.95;;
45114;SDS011;30877;43.706;10.780;2022-10-31T07:53:53;9.55;;;4.70;;
45114;SDS011;30877;43.706;10.780;2022-10-31T07:56:24;6.45;;;4.55;;
45114;SDS011;30877;43.706;10.780;2022-10-31T07:58:53;7.05;;;4.75;;
45114;SDS011;30877;43.706;10.780;2022-10-31T08:01:21;6.55;;;4.72;;
45114;SDS011;30877;43.706;10.780;2022-10-31T08:04:09;8.18;;;4.60;;
45114;SDS011;30877;43.706;10.780;2022-10-31T08:07:04;6.60;;;4.55;;
45114;SDS011;30877;43.706;10.780;2022-10-31T08:09:35;8.00;;;4.05;;
45114;SDS011;30877;43.706;10.780;2022-10-31T08:12:13;7.88;;;5.07;;
45114;SDS011;30877;43.706;10.780;2022-10-31T08:14:43;7.70;;;3.90;;
45114;SDS011;30877;43.706;10.780;2022-10-31T08:17:13;8.88;;;3.83;;
45114;SDS011;30877;43.706;10.780;2022-10-31T08:19:55;5.07;;;3.80;;
45114;SDS011;30877;43.706;10.780;2022-10-31T08:22:35;5.97;;;3.47;;
45114;SDS011;30877;43.706;10.780;2022-10-31T08:25:09;6.93;;;3.75;;
45114;SDS011;30877;43.706;10.780;2022-10-31T08:27:38;5.07;;;3.35;;
45114;SDS011;30877;43.706;10.780;2022-10-31T08:30:24;7.07;;;4.28;;
45114;SDS011;30877;43.706;10.780;2022-10-31T08:33:14;9.80;;;4.97;;
45114;SDS011;30877;43.706;10.780;2022-10-31T08:36:18;7.05;;;4.72;;
45114;SDS011;30877;43.706;10.780;2022-10-31T08:38:56;11.05;;;5.45;;
45114;SDS011;30877;43.706;10.780;2022-10-31T08:41:29;8.82;;;5.15;;
45114;SDS011;30877;43.706;10.780;2022-10-31T08:43:59;11.77;;;5.13;;
45114;SDS011;30877;43.706;10.780;2022-10-31T08:46:28;9.20;;;5.25;;
45114;SDS011;30877;43.706;10.780;2022-10-31T08:48:56;9.85;;;4.88;;
45114;SDS011;30877;43.706;10.780;2022-10-31T08:51:24;11.10;;;5.93;;
45114;SDS011;30877;43.706;10.780;2022-10-31T08:53:54;9.27;;;4.35;;
45114;SDS011;30877;43.706;10.780;2022-10-31T08:56:34;10.45;;;5.47;;
45114;SDS011;30877;43.706;10.780;2022-10-31T08:59:10;11.02;;;6.20;;
45114;SDS011;30877;43.706;10.780;2022-10-31T09:02:07;7.80;;;5.45;;
45114;SDS011;30877;43.706;10.780;2022-10-31T09:04:35;8.77;;;4.65;;
45114;SDS011;30877;43.706;10.780;2022-10-31T09:07:03;9.35;;;4.65;;
45114;SDS011;30877;43.706;10.780;2022-10-31T09:09:47;9.07;;;4.75;;
45114;SDS011;30877;43.706;10.780;2022-10-31T09:12:17;9.20;;;4.15;;
45114;SDS011;30877;43.706;10.780;2022-10-31T09:15:00;10.32;;;4.55;;
45114;SDS011;30877;43.706;10.780;2022-10-31T09:17:39;7.88;;;4.30;;
45114;SDS011;30877;43.706;10.780;2022-10-31T09:20:22;5.97;;;4.53;;
45114;SDS011;30877;43.706;10.780;2022-10-31T09:22:55;8.43;;;4.38;;
45114;SDS011;30877;43.706;10.780;2022-10-31T09:25:24;7.47;;;4.38;;
45114;SDS011;30877;43.706;10.780;2022-10-31T09:28:12;11.68;;;4.72;;
45114;SDS011;30877;43.706;10.780;2022-10-31T09:30:45;8.38;;;4.32;;
45114;SDS011;30877;43.706;10.780;2022-10-31T09:33:22;8.45;;;4.55;;
45114;SDS011;30877;43.706;10.780;2022-10-31T09:36:10;8.00;;;4.50;;
45114;SDS011;30877;43.706;10.780;2022-10-31T09:38:40;8.00;;;4.60;;
45114;SDS011;30877;43.706;10.780;2022-10-31T09:41:14;8.00;;;4.80;;
45114;SDS011;30877;43.706;10.780;2022-10-31T09:43:54;9.60;;;4.70;;
45114;SDS011;30877;43.706;10.780;2022-10-31T09:46:32;6.47;;;4.20;;
45114;SDS011;30877;43.706;10.780;2022-10-31T09:49:28;7.35;;;4.47;;
45114;SDS011;30877;43.706;10.780;2022-10-31T09:52:05;6.43;;;3.97;;
45114;SDS011;30877;43.706;10.780;2022-10-31T09:54:40;9.07;;;4.22;;
45114;SDS011;30877;43.706;10.780;2022-10-31T09:57:12;9.85;;;4.32;;
45114;SDS011;30877;43.706;10.780;2022-10-31T09:59:46;8.77;;;4.03;;
45114;SDS011;30877;43.706;10.780;2022-10-31T10:02:19;5.72;;;3.88;;
45114;SDS011;30877;43.706;10.780;2022-10-31T10:04:54;4.90;;;3.38;;
45114;SDS011;30877;43.706;10.780;2022-10-31T10:07:28;6.55;;;4.00;;
45114;SDS011;30877;43.706;10.780;2022-10-31T10:10:36;5.75;;;3.70;;
45114;SDS011;30877;43.706;10.780;2022-10-31T10:16:32;8.55;;;3.75;;
45114;SDS011;30877;43.706;10.780;2022-10-31T10:19:17;7.68;;;3.17;;
45114;SDS011;30877;43.706;10.780;2022-10-31T10:22:03;8.25;;;3.75;;
45114;SDS011;30877;43.706;10.780;2022-10-31T10:24:44;7.35;;;2.92;;
45114;SDS011;30877;43.706;10.780;2022-10-31T10:27:24;8.07;;;3.78;;
45114;SDS011;30877;43.706;10.780;2022-10-31T10:30:04;4.97;;;3.10;;
45114;SDS011;30877;43.706;10.780;2022-10-31T10:32:41;6.90;;;3.70;;
45114;SDS011;30877;43.706;10.780;2022-10-31T10:35:19;9.05;;;4.25;;
45114;SDS011;30877;43.706;10.780;2022-10-31T10:37:55;5.45;;;3.30;;
45114;SDS011;30877;43.706;10.780;2022-10-31T10:40:27;6.20;;;3.25;;
45114;SDS011;30877;43.706;10.780;2022-10-31T10:42:59;4.85;;;3.30;;
45114;SDS011;30877;43.706;10.780;2022-10-31T10:46:08;4.32;;;3.10;;
45114;SDS011;30877;43.706;10.780;2022-10-31T10:49:09;5.28;;;3.10;;
45114;SDS011;30877;43.706;10.780;2022-10-31T10:51:52;8.63;;;3.15;;
45114;SDS011;30877;43.706;10.780;2022-10-31T10:54:54;5.20;;;3.33;;
45114;SDS011;30877;43.706;10.780;2022-10-31T10:57:31;6.75;;;2.97;;
45114;SDS011;30877;43.706;10.780;2022-10-31T11:00:13;5.95;;;2.90;;
45114;SDS011;30877;43.706;10.780;2022-10-31T11:02:46;6.57;;;2.97;;
45114;SDS011;30877;43.706;10.780;2022-10-31T11:05:18;4.28;;;3.20;;
45114;SDS011;30877;43.706;10.780;2022-10-31T11:07:50;5.50;;;3.45;;
45114;SDS011;30877;43.706;10.780;2022-10-31T11:10:20;6.22;;;3.20;;
45114;SDS011;30877;43.706;10.780;2022-10-31T11:12:57;7.53;;;2.95;;
45114;SDS011;30877;43.706;10.780;2022-10-31T11:15:32;6.13;;;3.28;;
45114;SDS011;30877;43.706;10.780;2022-10-31T11:18:03;6.78;;;3.40;;
45114;SDS011;30877;43.706;10.780;2022-10-31T11:20:32;4.45;;;2.97;;
45114;SDS011;30877;43.706;10.780;2022-10-31T11:23:04;6.60;;;3.03;;
45114;SDS011;30877;43.706;10.780;2022-10-31T11:25:48;5.75;;;2.90;;
45114;SDS011;30877;43.706;10.780;2022-10-31T11:28:18;7.40;;;3.00;;
45114;SDS011;30877;43.706;10.780;2022-10-31T11:30:47;8.35;;;3.30;;
45114;SDS011;30877;43.706;10.780;2022-10-31T11:33:18;6.07;;;3.30;;
45114;SDS011;30877;43.706;10.780;2022-10-31T11:35:49;10.18;;;3.80;;
45114;SDS011;30877;43.706;10.780;2022-10-31T11:38:24;5.50;;;2.83;;
45114;SDS011;30877;43.706;10.780;2022-10-31T11:40:59;4.75;;;3.30;;
45114;SDS011;30877;43.706;10.780;2022-10-31T11:43:33;5.13;;;3.13;;
45114;SDS011;30877;43.706;10.780;2022-10-31T11:46:11;6.18;;;3.15;;
45114;SDS011;30877;43.706;10.780;2022-10-31T11:48:45;8.30;;;3.80;;
45114;SDS011;30877;43.706;10.780;2022-10-31T11:51:19;7.05;;;3.42;;
45114;SDS011;30877;43.706;10.780;2022-10-31T11:53:53;4.75;;;2.83;;
45114;SDS011;30877;43.706;10.780;2022-10-31T11:56:38;6.45;;;3.38;;
45114;SDS011;30877;43.706;10.780;2022-10-31T11:59:15;6.47;;;3.53;;
45114;SDS011;30877;43.706;10.780;2022-10-31T12:01:47;5.45;;;3.22;;
45114;SDS011;30877;43.706;10.780;2022-10-31T12:04:16;9.70;;;3.63;;
45114;SDS011;30877;43.706;10.780;2022-10-31T12:06:44;8.05;;;3.60;;
45114;SDS011;30877;43.706;10.780;2022-10-31T12:09:17;5.22;;;3.58;;
45114;SDS011;30877;43.706;10.780;2022-10-31T12:11:54;5.30;;;3.10;;
45114;SDS011;30877;43.706;10.780;2022-10-31T12:14:46;6.38;;;2.80;;
45114;SDS011;30877;43.706;10.780;2022-10-31T12:17:23;5.03;;;3.00;;
45114;SDS011;30877;43.706;10.780;2022-10-31T12:19:59;6.63;;;3.13;;
45114;SDS011;30877;43.706;10.780;2022-10-31T12:22:35;4.72;;;2.78;;
45114;SDS011;30877;43.706;10.780;2022-10-31T12:25:12;5.57;;;3.05;;
45114;SDS011;30877;43.706;10.780;2022-10-31T12:27:56;6.78;;;3.00;;
45114;SDS011;30877;43.706;10.780;2022-10-31T12:30:39;5.95;;;3.95;;
45114;SDS011;30877;43.706;10.780;2022-10-31T12:33:24;7.20;;;2.75;;
45114;SDS011;30877;43.706;10.780;2022-10-31T12:36:15;6.18;;;3.08;;
45114;SDS011;30877;43.706;10.780;2022-10-31T12:39:09;4.53;;;3.00;;
45114;SDS011;30877;43.706;10.780;2022-10-31T12:41:52;9.40;;;2.95;;
45114;SDS011;30877;43.706;10.780;2022-10-31T12:47:35;6.07;;;3.20;;
45114;SDS011;30877;43.706;10.780;2022-10-31T12:50:24;4.78;;;2.67;;
45114;SDS011;30877;43.706;10.780;2022-10-31T12:53:08;5.95;;;3.00;;
45114;SDS011;30877;43.706;10.780;2022-10-31T12:55:51;6.20;;;3.17;;
45114;SDS011;30877;43.706;10.780;2022-10-31T12:58:27;8.68;;;3.15;;
45114;SDS011;30877;43.706;10.780;2022-10-31T13:01:03;4.63;;;3.10;;
45114;SDS011;30877;43.706;10.780;2022-10-31T13:03:38;6.13;;;3.00;;
45114;SDS011;30877;43.706;10.780;2022-10-31T13:06:14;5.15;;;3.03;;
45114;SDS011;30877;43.706;10.780;2022-10-31T13:08:47;4.95;;;3.03;;
45114;SDS011;30877;43.706;10.780;2022-10-31T13:11:20;8.60;;;3.85;;
45114;SDS011;30877;43.706;10.780;2022-10-31T13:13:52;6.85;;;3.13;;
45114;SDS011;30877;43.706;10.780;2022-10-31T13:19:03;6.03;;;3.47;;
45114;SDS011;30877;43.706;10.780;2022-10-31T13:21:39;5.40;;;3.17;;
45114;SDS011;30877;43.706;10.780;2022-10-31T13:24:13;5.88;;;3.45;;
45114;SDS011;30877;43.706;10.780;2022-10-31T13:26:44;6.15;;;3.60;;
45114;SDS011;30877;43.706;10.780;2022-10-31T13:29:17;6.32;;;3.40;;
45114;SDS011;30877;43.706;10.780;2022-10-31T13:31:54;6.43;;;3.17;;
45114;SDS011;30877;43.706;10.780;2022-10-31T13:34:23;6.45;;;3.45;;
45114;SDS011;30877;43.706;10.780;2022-10-31T13:36:58;6.30;;;3.47;;
45114;SDS011;30877;43.706;10.780;2022-10-31T13:39:34;7.55;;;3.30;;
45114;SDS011;30877;43.706;10.780;2022-10-31T13:42:21;10.50;;;3.38;;
45114;SDS011;30877;43.706;10.780;2022-10-31T13:44:52;5.65;;;3.05;;
45114;SDS011;30877;43.706;10.780;2022-10-31T13:47:22;7.00;;;2.78;;
45114;SDS011;30877;43.706;10.780;2022-10-31T13:50:02;6.65;;;3.08;;
45114;SDS011;30877;43.706;10.780;2022-10-31T13:52:31;5.22;;;2.53;;
45114;SDS011;30877;43.706;10.780;2022-10-31T13:54:59;3.60;;;2.38;;
45114;SDS011;30877;43.706;10.780;2022-10-31T13:57:34;7.50;;;3.05;;
45114;SDS011;30877;43.706;10.780;2022-10-31T14:00:21;5.05;;;2.67;;
45114;SDS011;30877;43.706;10.780;2022-10-31T14:02:53;5.90;;;2.08;;
45114;SDS011;30877;43.706;10.780;2022-10-31T14:05:25;6.82;;;2.30;;
45114;SDS011;30877;43.706;10.780;2022-10-31T14:07:56;3.40;;;1.95;;
45114;SDS011;30877;43.706;10.780;2022-10-31T14:10:28;3.08;;;1.90;;
45114;SDS011;30877;43.706;10.780;2022-10-31T14:13:03;5.25;;;1.92;;
45114;SDS011;30877;43.706;10.780;2022-10-31T14:15:33;5.25;;;2.20;;
45114;SDS011;30877;43.706;10.780;2022-10-31T14:18:04;4.10;;;2.00;;
45114;SDS011;30877;43.706;10.780;2022-10-31T14:20:55;3.90;;;2.15;;
45114;SDS011;30877;43.706;10.780;2022-10-31T14:23:36;7.53;;;2.08;;
45114;SDS011;30877;43.706;10.780;2022-10-31T14:26:16;4.95;;;2.03;;
45114;SDS011;30877;43.706;10.780;2022-10-31T14:28:46;4.70;;;2.30;;
45114;SDS011;30877;43.706;10.780;2022-10-31T14:31:27;5.47;;;2.22;;
45114;SDS011;30877;43.706;10.780;2022-10-31T14:34:15;4.72;;;2.38;;
45114;SDS011;30877;43.706;10.780;2022-10-31T14:36:59;3.78;;;2.13;;
45114;SDS011;30877;43.706;10.780;2022-10-31T14:39:44;6.80;;;2.47;;
45114;SDS011;30877;43.706;10.780;2022-10-31T14:42:27;5.22;;;2.13;;
45114;SDS011;30877;43.706;10.780;2022-10-31T14:45:09;3.90;;;2.00;;
45114;SDS011;30877;43.706;10.780;2022-10-31T14:47:47;6.72;;;1.98;;
45114;SDS011;30877;43.706;10.780;2022-10-31T14:50:27;3.95;;;1.85;;
45114;SDS011;30877;43.706;10.780;2022-10-31T14:53:05;5.40;;;2.38;;
45114;SDS011;30877;43.706;10.780;2022-10-31T14:55:39;6.22;;;2.53;;
45114;SDS011;30877;43.706;10.780;2022-10-31T14:58:12;5.82;;;2.55;;
45114;SDS011;30877;43.706;10.780;2022-10-31T15:00:45;5.95;;;2.08;;
45114;SDS011;30877;43.706;10.780;2022-10-31T15:03:14;6.55;;;2.17;;
45114;SDS011;30877;43.706;10.780;2022-10-31T15:05:46;3.45;;;1.90;;
45114;SDS011;30877;43.706;10.780;2022-10-31T15:08:29;6.13;;;2.15;;
45114;SDS011;30877;43.706;10.780;2022-10-31T15:11:03;6.05;;;2.38;;
45114;SDS011;30877;43.706;10.780;2022-10-31T15:13:40;5.57;;;1.92;;
45114;SDS011;30877;43.706;10.780;2022-10-31T15:16:13;6.60;;;2.33;;
45114;SDS011;30877;43.706;10.780;2022-10-31T15:24:00;6.72;;;2.45;;
45114;SDS011;30877;43.706;10.780;2022-10-31T15:26:31;6.10;;;2.20;;
45114;SDS011;30877;43.706;10.780;2022-10-31T15:29:04;7.15;;;2.67;;
45114;SDS011;30877;43.706;10.780;2022-10-31T15:31:38;6.20;;;2.38;;
45114;SDS011;30877;43.706;10.780;2022-10-31T15:34:11;5.93;;;2.25;;
45114;SDS011;30877;43.706;10.780;2022-10-31T15:36:47;11.18;;;2.72;;
45114;SDS011;30877;43.706;10.780;2022-10-31T15:39:16;4.55;;;2.63;;
45114;SDS011;30877;43.706;10.780;2022-10-31T15:41:47;6.22;;;2.15;;
45114;SDS011;30877;43.706;10.780;2022-10-31T15:44:21;6.20;;;2.28;;